White Post, Virginia
Current Conditions -  °F | °C
As of 9:35 AM on Thursday 30 Oct 2014 (Local Time) from KOKV Reporting Station
Overcast Overcast  
Wind Chill: 50°   Ceiling: 5000
Heat Index: 50°   Visibility: 10mi
Dew Point: 34°   Wind: 7mph
Humidity: 54%   Direction: 290°WNW
Pressure: 30.09"   Gusts: NA
Location:  39.06°N, 78.1°W
Report Text: KOKV 301335Z AUTO 29006KT 10SM OVC050 10/01 A3009 RMK AO2
Loading
Personal Weather Stations






























Interactive Weather Map New forecast layout! Learn more

10-Day Weather Forecast

Advertisements
Track Severe Weather on mobile